logo
App data

Alien Shooter

Your mission is simple: clear the base at all costs. You will be provided with explosives to help you gain access to the teleports from where thousands of pitiless creatures pour.
Store | Hub | SteamDB | Site
Developer: Sigma Team Inc. Publisher: Sigma Team Inc.
Genre: Action, Indie, RPG
Languages: English, Russian
Tags: Action (161), Shooter (158), Blood (155), Aliens (147), Horror (144), Gore (138), Action RPG (135), Sci-fi (131), Top-Down (128), Isometric (127), Singleplayer (127), RPG (124), Beat 'em up (124), Looter Shooter (114), Indie (110), Top-Down Shooter (108), Atmospheric (95), Arcade (95), Rogue-like (84), Arena Shooter (82)
Category: Single-player, Steam Achievements, Steam Trading Cards, Partial Controller Support, Steam Cloud, Steam Leaderboards
Release date: Sep 15, 2003
Price: $4.99
Old userscore: 94% Owners: 200,000 .. 500,000
Followers: 3,447
Peak concurrent players yesterday: 40
YouTube stats: 17,168 views and 80 comments for top 50 videos uploaded last week, 16 new videos uploaded yesterday.
Playtime total: 07:02 (average) 09:55 (median)

Steam Spy is still in beta, so expect major bugs.

Owners data:

Access restricted.

This feature is only available to users with special access rights. Sorry.

If you want to proceed, you need to register or log in first and then back Steam Spy on Patreon. Look for Indie or Pro pledge.

Don't forget to use the same email as on Steam Spy!

If you've recently backed Steam Spy on Patreon, please note, that it might take around 15 minutes for your access rights to sync. In most cases you'll need to re-login on Steam Spy too.

Audience in 2 weeks:

Access restricted.

This feature is only available to users with special access rights. Sorry.

If you want to proceed, you need to register or log in first and then back Steam Spy on Patreon. Look for Indie or Pro pledge.

Don't forget to use the same email as on Steam Spy!

If you've recently backed Steam Spy on Patreon, please note, that it might take around 15 minutes for your access rights to sync. In most cases you'll need to re-login on Steam Spy too.

Peak daily concurrent players:

CCU data courtesy of SteamDB. Used with permission.

Hourly concurrent players:

Daily Twitch stats:

Hourly Twitch stats:

Followers over time

Access restricted.

This feature is only available to users with special access rights. Sorry.

If you want to proceed, you need to register or log in first and then back Steam Spy on Patreon. Look for Indie or Pro pledge.

Don't forget to use the same email as on Steam Spy!

If you've recently backed Steam Spy on Patreon, please note, that it might take around 15 minutes for your access rights to sync. In most cases you'll need to re-login on Steam Spy too.

Views for top 50 videos on YouTube for this game:

Games similar to this one:

# Game Release date
Price
Score rank
(Userscore / Metascore)
Owners
Players
Playtime (Median)
1 The Ship: Single Player Nov 20, 2006 $9.99N/A (N/A)200,000 .. 500,0000%00:00 (00:00)
2 Alpha Prime Nov 7, 2007 $4.99N/A (N/A/59%)200,000 .. 500,0000%00:00 (00:00)
3 Painkiller Overdose Oct 30, 2007 $4.99N/A (N/A/65%)100,000 .. 200,0000%00:00 (00:00)
4 Judge Dredd: Dredd vs. Death Mar 26, 2009 $7.99N/A (N/A/55%)50,000 .. 100,0000%00:00 (00:00)
5 Project: Snowblind Feb 22, 2005 $5.99N/A (N/A/76%)100,000 .. 200,0000%00:00 (00:00)
6 Conflict: Denied Ops Feb 8, 2008 $5.99N/A (N/A/58%)100,000 .. 200,0000%00:00 (00:00)
7 QUAKE Mission Pack 1: Scourge of Armagon Feb 28, 1997 N/AN/A (N/A)50,000 .. 100,0000%00:00 (00:00)
8 Frontlines: Fuel of War Feb 29, 2008 $19.99N/A (N/A/73%)200,000 .. 500,0000%00:00 (00:00)
9 TimeShift Jul 23, 2009 $19.99N/A (N/A/71%)100,000 .. 200,0000%00:00 (00:00)
10 The Club Feb 20, 2008 $14.99N/A (N/A/67%)20,000 .. 50,0000%00:00 (00:00)
11 Larva Mortus Mar 19, 2009 $4.99N/A (N/A/64%)100,000 .. 200,0000%00:00 (00:00)
12 Exodus from the Earth Oct 24, 2008 $14.99N/A (N/A)20,000 .. 50,0000%00:00 (00:00)
13 Damnation May 22, 2009 $9.99N/A (N/A/41%)50,000 .. 100,0000%00:00 (00:00)
14 Unreal 2: The Awakening Feb 3, 2003 $14.99N/A (N/A/75%)200,000 .. 500,0000%00:00 (00:00)
15 Prince of Persia: Warrior Within Nov 30, 2004 $9.99N/A (N/A/83%)200,000 .. 500,0000%00:00 (00:00)
16 Prince of Persia: The Two Thrones Dec 7, 2005 $9.99N/A (N/A/85%)200,000 .. 500,0000%00:00 (00:00)
17 Tom Clancy's Rainbow Six Vegas Apr 9, 2008 $9.99N/A (N/A/85%)100,000 .. 200,0000%00:00 (00:00)
18 Tom Clancy's Ghost Recon Desert Siege Jul 15, 2008 $4.99N/A (N/A/82%)100,000 .. 200,0000%00:00 (00:00)
19 Tom Clancy's Rainbow Six Lockdown May 13, 2008 $9.99N/A (N/A/59%)100,000 .. 200,0000%00:00 (00:00)
20 Rayman Raving Rabbids Jun 13, 2008 $9.99N/A (N/A/58%)50,000 .. 100,0000%00:00 (00:00)
21 Legendary Dec 1, 2008 $4.99N/A (N/A/50%)200,000 .. 500,0000%00:00 (00:00)
22 Rocket Knight May 11, 2010 $14.99N/A (N/A/63%)0 .. 20,0000%00:00 (00:00)
23 Prince of Persia Dec 10, 2008 $9.99N/A (N/A/82%)200,000 .. 500,0000%00:00 (00:00)
24 Watchmen: The End is Nigh Mar 4, 2009 $4.99N/A (N/A/61%)20,000 .. 50,0000%00:00 (00:00)
25 Watchmen: The End is Nigh Part 2 Jul 29, 2009 $4.99N/A (N/A/44%)20,000 .. 50,0000%00:00 (00:00)
26 Bionic Commando Jul 28, 2009 $9.99N/A (N/A/69%)200,000 .. 500,0000%00:00 (00:00)
27 Bionic Commando: Rearmed Aug 14, 2008 $9.99N/A (N/A/86%)200,000 .. 500,0000%00:00 (00:00)
28 Alien Breed: Impact Jun 3, 2010 $9.99N/A (N/A/64%)200,000 .. 500,0000%00:00 (00:00)
29 Alien Breed 2: Assault Sep 22, 2010 $9.99N/A (N/A/63%)200,000 .. 500,0000%00:00 (00:00)
30 Twin Sector Sep 16, 2009 $4.99N/A (N/A)50,000 .. 100,0000%00:00 (00:00)
31 Dead Horde Jul 27, 2011 $5.99N/A (N/A)50,000 .. 100,0000%00:00 (00:00)
32 Sam & Max 301: The Penal Zone Dec 14, 1990 $9.99N/A (N/A)100,000 .. 200,0002.13%05:08 (01:42)
33 Iron Grip: Warlord Dec 5, 2008 N/AN/A (N/A/59%)100,000 .. 200,0000%00:00 (00:00)
34 Delta Force Xtreme 2 Jun 18, 2009 $19.99N/A (N/A)0 .. 20,0000%00:00 (00:00)
35 Delta Force Land Warrior Jun 18, 2009 $9.99N/A (N/A/74%)20,000 .. 50,0000%00:00 (00:00)
36 Delta Force: Task Force Dagger Jun 18, 2009 $9.99N/A (N/A/51%)20,000 .. 50,0000%00:00 (00:00)
37 Delta Force: Black Hawk Down Jun 18, 2009 $14.99N/A (N/A/77%)50,000 .. 100,0000%00:00 (00:00)
38 Comanche 4 Jun 18, 2009 $2.49N/A (N/A/74%)20,000 .. 50,0000%00:00 (00:00)
39 Alien Shooter: Revisited Apr 15, 2009 $4.99N/A (N/A)200,000 .. 500,0000%00:00 (00:00)
40 Zombie Shooter May 27, 2009 $4.99N/A (N/A)100,000 .. 200,0000%00:00 (00:00)
41 Zombie Shooter 2 Sep 23, 2009 $9.99N/A (N/A)100,000 .. 200,0000%00:00 (00:00)
42 SEGA Mega Drive and Genesis Classics Jun 1, 2010 $30.34N/A (N/A)1,000,000 .. 2,000,0000%00:00 (00:00)
43 Project Freedom Oct 14, 2009 $2.99N/A (N/A)20,000 .. 50,0000%00:00 (00:00)
44 Kingpin — Life of Crime Jun 1, 1999 $9.99N/A (N/A)20,000 .. 50,0000%00:00 (00:00)
45 Painkiller: Resurrection Oct 27, 2009 $9.99N/A (N/A/38%)100,000 .. 200,0000%00:00 (00:00)
46 AquaNox Apr 20, 2010 $4.99N/A (N/A/67%)100,000 .. 200,0000%00:00 (00:00)
47 AquaNox 2: Revelation Apr 20, 2010 $4.99N/A (N/A/59%)50,000 .. 100,0000%00:00 (00:00)
48 Chaser Jul 16, 2010 $4.99N/A (N/A/66%)100,000 .. 200,0000%00:00 (00:00)
49 DogFighter Jun 14, 2010 $0.99N/A (N/A)200,000 .. 500,0000%00:00 (00:00)
50 Wasteland Angel Sep 1, 2011 $9.99N/A (N/A)50,000 .. 100,0000%00:00 (00:00)
51 Plain Sight Apr 5, 2010 $4.99N/A (N/A/76%)50,000 .. 100,0000%00:00 (00:00)
52 NyxQuest: Kindred Spirits Sep 27, 2010 $2.99N/A (N/A)20,000 .. 50,0000%00:00 (00:00)
53 The First Templar - Steam Special Edition May 12, 2011 $9.99N/A (N/A/57%)100,000 .. 200,0000%00:00 (00:00)
54 Painkiller Redemption Feb 25, 2011 $4.99N/A (N/A/43%)200,000 .. 500,0000%00:00 (00:00)
55 Shadow Harvest: Phantom Ops Apr 5, 2011 $9.99N/A (N/A/34%)20,000 .. 50,0000%00:00 (00:00)
56 Capsized Apr 29, 2011 $9.99N/A (N/A/80%)200,000 .. 500,0000%00:00 (00:00)
57 Garshasp: Temple of the Dragon Sep 24, 2012 $4.99N/A (N/A)20,000 .. 50,0000%00:00 (00:00)
58 Warp Mar 21, 2012 $9.99N/A (N/A)20,000 .. 50,0000%00:00 (00:00)
59 Serious Sam Double D XXL Aug 30, 2011 $9.99N/A (N/A)200,000 .. 500,0000%00:00 (00:00)
60 Global Ops: Commando Libya Oct 26, 2011 $4.99N/A (N/A/37%)50,000 .. 100,0000%00:00 (00:00)
61 Choplifter HD Jan 11, 2012 N/AN/A (N/A/65%)50,000 .. 100,0000%00:00 (00:00)
62 Sonic the Hedgehog 4 - Episode II May 15, 2012 $9.99N/A (N/A/54%)100,000 .. 200,0000%00:00 (00:00)
63 Foreign Legion: Multi Massacre Jul 9, 2012 $4.99N/A (N/A)50,000 .. 100,0000%00:00 (00:00)
64 Painkiller: Recurring Evil Feb 29, 2012 $9.99N/A (N/A/38%)100,000 .. 200,0000%00:00 (00:00)
65 Noitu Love 2: Devolution Apr 23, 2012 $4.99N/A (N/A/80%)50,000 .. 100,0000%00:00 (00:00)
66 Sacred Citadel Apr 16, 2013 $9.99N/A (N/A/61%)500,000 .. 1,000,0000%00:00 (00:00)
67 Blades of Time Apr 20, 2012 $9.99N/A (N/A/63%)200,000 .. 500,0000%00:00 (00:00)
68 Primal Fears Jan 8, 2013 $9.99N/A (N/A)50,000 .. 100,0000%00:00 (00:00)
69 Kung Fu Strike - The Warrior's Rise Jul 24, 2012 $9.99N/A (N/A)100,000 .. 200,0000%00:00 (00:00)
70 Intrusion 2 Sep 11, 2012 $9.99N/A (N/A/80%)200,000 .. 500,0000%00:00 (00:00)
71 Karateka Dec 3, 2012 $3.99N/A (N/A/48%)100,000 .. 200,0000%00:00 (00:00)
72 NiGHTS Into Dreams Dec 17, 2012 $7.99N/A (N/A)200,000 .. 500,0000%00:00 (00:00)
73 Miner Wars 2081 Nov 28, 2012 $4.99N/A (N/A/52%)50,000 .. 100,0000%00:00 (00:00)
74 Thunder Wolves May 15, 2013 $9.99N/A (N/A/69%)50,000 .. 100,0000%00:00 (00:00)
75 Strike Suit Infinity Apr 30, 2013 $2.79N/A (N/A/66%)100,000 .. 200,0000%00:00 (00:00)
76 The Apogee Throwback Pack Jul 1, 2013 $9.99N/A (N/A)200,000 .. 500,0000%00:00 (00:00)
77 Guncraft Aug 9, 2013 $14.99N/A (N/A/73%)50,000 .. 100,0000%00:00 (00:00)
78 Kill to Collect Apr 6, 2016 $9.99N/A (N/A/57%)20,000 .. 50,0000%00:00 (00:00)
79 The Chaos Engine Aug 29, 2013 $9.99N/A (N/A/40%)100,000 .. 200,0000%00:00 (00:00)
80 Blood Omen 2: Legacy of Kain Mar 29, 2002 $6.99N/A (N/A)200,000 .. 500,0000%00:00 (00:00)
81 Strike Vector Jan 28, 2014 N/AN/A (N/A/73%)100,000 .. 200,0000%00:00 (00:00)
82 YAIBA: NINJA GAIDEN Z Mar 21, 2014 $29.99N/A (N/A)50,000 .. 100,0000%00:00 (00:00)
83 Tiny Barbarian DX Dec 3, 2013 $29.99N/A (N/A)20,000 .. 50,0000%00:00 (00:00)
84 Hot Tin Roof: The Cat That Wore A Fedora Feb 20, 2015 $14.99N/A (N/A/66%)50,000 .. 100,0000%00:00 (00:00)
85 Alone in the Dark Nov 18, 2008 $9.99N/A (N/A/55%)20,000 .. 50,0000%00:00 (00:00)
86 Cold War Jan 8, 2014 $4.99N/A (N/A/64%)20,000 .. 50,0000%00:00 (00:00)
87 Zombeer Jan 30, 2015 $4.99N/A (N/A/32%)20,000 .. 50,0000%00:00 (00:00)
88 Aces Wild: Manic Brawling Action! Jan 31, 2014 $9.99N/A (N/A)50,000 .. 100,0000%00:00 (00:00)
89 Alone in the Dark: Illumination Jun 11, 2015 $19.99N/A (N/A)20,000 .. 50,0000%00:00 (00:00)
90 Spider: Rite of the Shrouded Moon Aug 6, 2015 $9.99N/A (N/A)20,000 .. 50,0000%00:00 (00:00)
91 Eterium Apr 15, 2014 $4.99N/A (N/A)100,000 .. 200,0000%00:00 (00:00)
92 Explodemon Mar 25, 2014 $8.99N/A (N/A)20,000 .. 50,0000%00:00 (00:00)
93 House of the Dying Sun Nov 1, 2016 $19.99N/A (N/A/76%)100,000 .. 200,0000%00:00 (00:00)
94 Majestic Nights Oct 30, 2014 $4.99N/A (N/A/32%)20,000 .. 50,0000%00:00 (00:00)
95 Project Root May 1, 2014 $9.99N/A (N/A)20,000 .. 50,0000%00:00 (00:00)
96 El Matador Apr 3, 2014 $3.99N/A (N/A/54%)50,000 .. 100,0000%00:00 (00:00)
97 Elliot Quest Nov 10, 2014 $9.99N/A (N/A)20,000 .. 50,0000%00:00 (00:00)
98 Dark Raid Jun 3, 2014 $3.99N/A (N/A)20,000 .. 50,0000%00:00 (00:00)
99 Kraven Manor Sep 26, 2014 FreeN/A (N/A/58%)100,000 .. 200,0000%00:00 (00:00)
100 JUJU Dec 10, 2014 $9.99N/A (N/A/65%)0 .. 20,0000%00:00 (00:00)
101 Chernobyl Commando Mar 8, 2013 N/AN/A (N/A)50,000 .. 100,0000%00:00 (00:00)
102 Manhunter Jan 29, 2013 N/AN/A (N/A)100,000 .. 200,0000%00:00 (00:00)
103 The Way May 20, 2016 $14.99N/A (N/A/67%)100,000 .. 200,0000%00:00 (00:00)
104 The Stalin Subway: Red Veil Oct 5, 2006 $2.99N/A (N/A)50,000 .. 100,0000%00:00 (00:00)
105 OCEAN CITY RACING Aug 27, 2016 $1.99N/A (N/A)100,000 .. 200,0000%00:00 (00:00)
106 Vertical Drop Heroes HD Jul 25, 2014 $6.99N/A (N/A/70%)100,000 .. 200,0000%00:00 (00:00)
107 Raiden IV: OverKill Sep 3, 2015 $14.99N/A (N/A)50,000 .. 100,0000%00:00 (00:00)
108 Down To One Jan 7, 2016 $0.99N/A (N/A)100,000 .. 200,0000%00:00 (00:00)
109 Raptor: Call of The Shadows - 2015 Edition Feb 13, 2015 $4.99N/A (N/A)20,000 .. 50,0000%00:00 (00:00)
110 TEMBO THE BADASS ELEPHANT Jul 21, 2015 $14.99N/A (N/A)50,000 .. 100,0000%00:00 (00:00)
111 Supercharged Robot VULKAISER Jun 4, 2015 $4.99N/A (N/A)20,000 .. 50,0000%00:00 (00:00)
112 Rad Rodgers: World One Dec 1, 2016 $19.99N/A (N/A/72%)0 .. 20,0000%00:00 (00:00)
113 Cobalt Feb 2, 2016 $14.99N/A (N/A/69%)20,000 .. 50,0000%00:00 (00:00)
114 Hocus Pocus May 5, 2014 $4.99N/A (N/A)20,000 .. 50,0000%00:00 (00:00)
115 Stargunner Nov 19, 1996 FreeN/A (N/A)20,000 .. 50,0000%00:00 (00:00)
116 Rise of the Triad: Dark War May 5, 2014 $6.99N/A (N/A)0 .. 20,0000%00:00 (00:00)
117 Mega Man Legacy Collection Aug 24, 2015 $14.99N/A (N/A/85%)200,000 .. 500,0000%00:00 (00:00)
118 METAL SLUG 2 Apr 14, 2016 $6.99N/A (N/A)100,000 .. 200,0000%00:00 (00:00)
119 SHOCK TROOPERS May 18, 2016 $7.99N/A (N/A)20,000 .. 50,0000%00:00 (00:00)
120 Kung Fury: Street Rage May 28, 2015 $6.99N/A (N/A)200,000 .. 500,0000%00:00 (00:00)
121 Cruel Arena Aug 18, 2015 $0.99N/A (N/A)200,000 .. 500,0000%00:00 (00:00)
122 Glass Wing Jun 24, 2015 FreeN/A (N/A)50,000 .. 100,0000%00:00 (00:00)
123 Zanzarah: The Hidden Portal Aug 20, 2015 $7.99N/A (N/A)100,000 .. 200,0000%00:00 (00:00)
124 Call of Tomsk-7 Aug 10, 2015 $0.99N/A (N/A)20,000 .. 50,0000%00:00 (00:00)
125 Mighty Gunvolt Sep 29, 2015 $4.99N/A (N/A)20,000 .. 50,0000%00:00 (00:00)
126 Square Brawl Oct 22, 2015 $4.99N/A (N/A)20,000 .. 50,0000%00:00 (00:00)
127 Rot Gut Jul 12, 2016 $1.99N/A (N/A)50,000 .. 100,0000%00:00 (00:00)
128 Little Big Adventure Oct 14, 1994 $5.99N/A (N/A)50,000 .. 100,0000%00:00 (00:00)
129 Black & White Bushido Oct 2, 2015 $12.99N/A (N/A)20,000 .. 50,0000%00:00 (00:00)
130 Code of Princess Apr 14, 2016 $14.99N/A (N/A/53%)20,000 .. 50,0000%00:00 (00:00)
131 Men of Valor Nov 29, 2004 $9.99N/A (N/A/71%)50,000 .. 100,0000%00:00 (00:00)
132 Emmerholt: Prologue Feb 14, 2017 FreeN/A (N/A)20,000 .. 50,0000%00:00 (00:00)
133 Spell Fighter VR Mar 1, 2016 FreeN/A (N/A)100,000 .. 200,0000%00:00 (00:00)
134 Fossil Echo Jul 8, 2016 $9.99N/A (N/A/61%)20,000 .. 50,0000%00:00 (00:00)
135 Zenodyne R May 29, 2016 $9.99N/A (N/A)0 .. 20,0000%00:00 (00:00)
136 Versus: Battle of the Gladiator Aug 26, 2016 N/AN/A (N/A)100,000 .. 200,0000%00:00 (00:00)
137 Phantaruk Aug 16, 2016 $4.99N/A (N/A/53%)20,000 .. 50,0000%00:00 (00:00)
138 Yomawari: Night Alone Oct 25, 2016 $19.99N/A (N/A)50,000 .. 100,0000%00:00 (00:00)
139 Scrap Garden - The Day Before Oct 7, 2016 FreeN/A (N/A)200,000 .. 500,0000%00:00 (00:00)
140 THOTH Oct 7, 2016 $4.99N/A (N/A)50,000 .. 100,0000%00:00 (00:00)
141 Unbox: Newbie's Adventure Sep 5, 2016 $19.99N/A (N/A/68%)20,000 .. 50,0000%00:00 (00:00)
142 Overkill VR: Action Shooter FPS Nov 16, 2016 $19.99N/A (N/A)20,000 .. 50,0000%00:00 (00:00)
143 Deus Ex: Breach Jan 24, 2017 FreeN/A (N/A)50,000 .. 100,0000%00:00 (00:00)
144 Xmas Shooting - Scramble!! Dec 16, 2016 $2.49N/A (N/A)0 .. 20,0000%00:00 (00:00)
145 STAR WARS SHADOWS OF THE EMPIRE Sep 17, 1997 $5.99N/A (N/A)20,000 .. 50,0000%00:00 (00:00)
146 PLANETS OF WAR Jun 30, 2017 $1.99N/A (N/A)20,000 .. 50,0000%00:00 (00:00)

Geography of active players over time, share:

Access restricted.

This feature is only available to users with special access rights. Sorry.

If you want to proceed, you need to register or log in first and then back Steam Spy on Patreon. Look for Indie or Pro pledge.

Don't forget to use the same email as on Steam Spy!

If you've recently backed Steam Spy on Patreon, please note, that it might take around 15 minutes for your access rights to sync. In most cases you'll need to re-login on Steam Spy too.

Tags over time:

Access restricted.

This feature is only available to users with special access rights. Sorry.

If you want to proceed, you need to register or log in first and then back Steam Spy on Patreon. Look for Indie or Pro pledge.

Don't forget to use the same email as on Steam Spy!

If you've recently backed Steam Spy on Patreon, please note, that it might take around 15 minutes for your access rights to sync. In most cases you'll need to re-login on Steam Spy too.

Owners of this game also own:

Access restricted.

This feature is only available to users with special access rights. Sorry.

If you want to proceed, you need to register or log in first and then back Steam Spy on Patreon. Look for Indie or Pro pledge.

Don't forget to use the same email as on Steam Spy!

If you've recently backed Steam Spy on Patreon, please note, that it might take around 15 minutes for your access rights to sync. In most cases you'll need to re-login on Steam Spy too.

Playtime distribution:

Access restricted.

This feature is only available to users with special access rights. Sorry.

If you want to proceed, you need to register or log in first and then back Steam Spy on Patreon. Look for Indie or Pro pledge.

Don't forget to use the same email as on Steam Spy!

If you've recently backed Steam Spy on Patreon, please note, that it might take around 15 minutes for your access rights to sync. In most cases you'll need to re-login on Steam Spy too.

Playtime (2 weeks):

Access restricted.

This feature is only available to users with special access rights. Sorry.

If you want to proceed, you need to register or log in first and then back Steam Spy on Patreon. Look for Indie or Pro pledge.

Don't forget to use the same email as on Steam Spy!

If you've recently backed Steam Spy on Patreon, please note, that it might take around 15 minutes for your access rights to sync. In most cases you'll need to re-login on Steam Spy too.

User reviews:

Login required.

Please register or log in to see this information.